sensor_id;sensor_type;location;lat;lon;timestamp;pressure;altitude;pressure_sealevel;temperature;humidity
83492;BME280;73661;56.120;12.302;2023-11-19T00:01:31;101422.75;;;3.51;75.54
83492;BME280;73661;56.120;12.302;2023-11-19T00:03:58;101411.50;;;3.49;76.11
83492;BME280;73661;56.120;12.302;2023-11-19T00:06:24;101408.69;;;3.45;76.09
83492;BME280;73661;56.120;12.302;2023-11-19T00:08:51;101411.38;;;3.66;75.10
83492;BME280;73661;56.120;12.302;2023-11-19T00:11:17;101393.84;;;3.59;75.60
83492;BME280;73661;56.120;12.302;2023-11-19T00:13:42;101396.75;;;3.66;75.84
83492;BME280;73661;56.120;12.302;2023-11-19T00:16:09;101387.97;;;3.43;76.21
83492;BME280;73661;56.120;12.302;2023-11-19T00:18:35;101374.56;;;3.70;75.72
83492;BME280;73661;56.120;12.302;2023-11-19T00:21:05;101366.25;;;3.77;74.96
83492;BME280;73661;56.120;12.302;2023-11-19T00:23:31;101368.91;;;3.98;74.44
83492;BME280;73661;56.120;12.302;2023-11-19T00:25:56;101371.41;;;3.58;76.37
83492;BME280;73661;56.120;12.302;2023-11-19T00:28:22;101365.84;;;3.68;75.70
83492;BME280;73661;56.120;12.302;2023-11-19T00:30:52;101367.09;;;3.76;75.60
83492;BME280;73661;56.120;12.302;2023-11-19T00:33:18;101353.81;;;3.88;75.04
83492;BME280;73661;56.120;12.302;2023-11-19T00:35:44;101344.66;;;3.75;75.08
83492;BME280;73661;56.120;12.302;2023-11-19T00:38:09;101345.31;;;3.90;74.60
83492;BME280;73661;56.120;12.302;2023-11-19T00:40:35;101330.13;;;3.77;74.94
83492;BME280;73661;56.120;12.302;2023-11-19T00:43:01;101316.22;;;3.94;74.51
83492;BME280;73661;56.120;12.302;2023-11-19T00:45:27;101309.16;;;3.90;75.00
83492;BME280;73661;56.120;12.302;2023-11-19T00:47:53;101292.44;;;4.01;74.42
83492;BME280;73661;56.120;12.302;2023-11-19T00:50:19;101292.50;;;4.03;74.34
83492;BME280;73661;56.120;12.302;2023-11-19T00:52:44;101284.81;;;4.04;74.80
83492;BME280;73661;56.120;12.302;2023-11-19T00:55:10;101274.78;;;3.91;74.95
83492;BME280;73661;56.120;12.302;2023-11-19T00:57:36;101271.06;;;4.05;74.48
83492;BME280;73661;56.120;12.302;2023-11-19T01:00:03;101269.09;;;4.00;74.10
83492;BME280;73661;56.120;12.302;2023-11-19T01:02:35;101252.66;;;3.98;74.55
83492;BME280;73661;56.120;12.302;2023-11-19T01:05:00;101255.41;;;4.22;73.94
83492;BME280;73661;56.120;12.302;2023-11-19T01:07:26;101249.56;;;4.27;73.61
83492;BME280;73661;56.120;12.302;2023-11-19T01:09:52;101235.06;;;4.31;73.35
83492;BME280;73661;56.120;12.302;2023-11-19T01:12:19;101230.44;;;4.22;73.61
83492;BME280;73661;56.120;12.302;2023-11-19T01:14:45;101222.25;;;4.12;73.53
83492;BME280;73661;56.120;12.302;2023-11-19T01:17:10;101215.91;;;4.26;73.47
83492;BME280;73661;56.120;12.302;2023-11-19T01:19:36;101207.91;;;4.20;72.99
83492;BME280;73661;56.120;12.302;2023-11-19T01:22:01;101197.59;;;4.20;73.53
83492;BME280;73661;56.120;12.302;2023-11-19T01:24:27;101197.34;;;4.14;73.13
83492;BME280;73661;56.120;12.302;2023-11-19T01:26:54;101185.28;;;4.35;72.77
83492;BME280;73661;56.120;12.302;2023-11-19T01:29:19;101176.47;;;4.30;72.68
83492;BME280;73661;56.120;12.302;2023-11-19T01:31:46;101177.25;;;4.06;73.56
83492;BME280;73661;56.120;12.302;2023-11-19T01:34:16;101180.81;;;4.08;73.87
83492;BME280;73661;56.120;12.302;2023-11-19T01:36:42;101167.56;;;4.01;73.33
83492;BME280;73661;56.120;12.302;2023-11-19T01:39:08;101162.25;;;4.19;73.19
83492;BME280;73661;56.120;12.302;2023-11-19T01:41:34;101155.59;;;4.03;73.69
83492;BME280;73661;56.120;12.302;2023-11-19T01:44:01;101146.75;;;4.19;73.46
83492;BME280;73661;56.120;12.302;2023-11-19T01:46:27;101141.47;;;4.16;73.25
83492;BME280;73661;56.120;12.302;2023-11-19T01:48:53;101141.72;;;4.22;72.91
83492;BME280;73661;56.120;12.302;2023-11-19T01:51:21;101133.88;;;4.20;73.13
83492;BME280;73661;56.120;12.302;2023-11-19T01:53:48;101136.75;;;4.28;73.12
83492;BME280;73661;56.120;12.302;2023-11-19T01:56:15;101134.59;;;4.16;73.35
83492;BME280;73661;56.120;12.302;2023-11-19T01:58:44;101123.19;;;4.11;73.95
83492;BME280;73661;56.120;12.302;2023-11-19T02:01:11;101119.91;;;4.37;72.44
83492;BME280;73661;56.120;12.302;2023-11-19T02:03:38;101126.41;;;4.28;73.11
83492;BME280;73661;56.120;12.302;2023-11-19T02:06:05;101113.84;;;4.37;73.25
83492;BME280;73661;56.120;12.302;2023-11-19T02:08:31;101105.09;;;4.33;72.57
83492;BME280;73661;56.120;12.302;2023-11-19T02:10:57;101106.44;;;4.46;72.81
83492;BME280;73661;56.120;12.302;2023-11-19T02:13:25;101088.41;;;4.48;72.41
83492;BME280;73661;56.120;12.302;2023-11-19T02:15:51;101096.72;;;4.17;73.22
83492;BME280;73661;56.120;12.302;2023-11-19T02:18:18;101090.13;;;4.25;73.11
83492;BME280;73661;56.120;12.302;2023-11-19T02:20:45;101095.13;;;3.98;73.73
83492;BME280;73661;56.120;12.302;2023-11-19T02:23:13;101085.91;;;4.27;73.08
83492;BME280;73661;56.120;12.302;2023-11-19T02:25:40;101082.94;;;4.16;73.05
83492;BME280;73661;56.120;12.302;2023-11-19T02:28:07;101069.78;;;4.10;73.26
83492;BME280;73661;56.120;12.302;2023-11-19T02:30:33;101055.03;;;4.07;73.40
83492;BME280;73661;56.120;12.302;2023-11-19T02:32:59;101043.72;;;4.28;73.27
83492;BME280;73661;56.120;12.302;2023-11-19T02:35:28;101034.31;;;4.28;72.84
83492;BME280;73661;56.120;12.302;2023-11-19T02:37:58;101026.13;;;4.18;73.82
83492;BME280;73661;56.120;12.302;2023-11-19T02:40:25;101009.88;;;4.20;73.15
83492;BME280;73661;56.120;12.302;2023-11-19T02:42:52;101015.97;;;4.46;72.98
83492;BME280;73661;56.120;12.302;2023-11-19T02:45:18;101018.06;;;4.56;72.87
83492;BME280;73661;56.120;12.302;2023-11-19T02:47:44;101003.47;;;4.34;73.32
83492;BME280;73661;56.120;12.302;2023-11-19T02:50:10;101002.13;;;4.44;73.24
83492;BME280;73661;56.120;12.302;2023-11-19T02:52:44;101009.22;;;4.26;74.04
83492;BME280;73661;56.120;12.302;2023-11-19T02:55:12;100991.41;;;4.33;73.98
83492;BME280;73661;56.120;12.302;2023-11-19T02:57:40;100992.50;;;4.40;73.02
83492;BME280;73661;56.120;12.302;2023-11-19T03:00:25;100984.66;;;4.37;73.83
83492;BME280;73661;56.120;12.302;2023-11-19T03:03:03;100972.78;;;4.18;74.84
83492;BME280;73661;56.120;12.302;2023-11-19T03:05:48;100972.66;;;4.39;73.69
83492;BME280;73661;56.120;12.302;2023-11-19T03:08:15;100958.84;;;4.38;73.67
83492;BME280;73661;56.120;12.302;2023-11-19T03:10:41;100945.34;;;4.22;73.81
83492;BME280;73661;56.120;12.302;2023-11-19T03:13:11;100943.97;;;4.31;74.19
83492;BME280;73661;56.120;12.302;2023-11-19T03:15:38;100929.38;;;4.33;74.48
83492;BME280;73661;56.120;12.302;2023-11-19T03:18:04;100913.34;;;4.42;74.39
83492;BME280;73661;56.120;12.302;2023-11-19T03:20:30;100922.47;;;4.32;74.53
83492;BME280;73661;56.120;12.302;2023-11-19T03:22:55;100914.88;;;4.62;74.08
83492;BME280;73661;56.120;12.302;2023-11-19T03:25:25;100914.13;;;4.41;74.38
83492;BME280;73661;56.120;12.302;2023-11-19T03:27:52;100906.28;;;4.38;74.45
83492;BME280;73661;56.120;12.302;2023-11-19T03:30:19;100901.75;;;4.56;74.30
83492;BME280;73661;56.120;12.302;2023-11-19T03:32:46;100897.53;;;4.34;74.70
83492;BME280;73661;56.120;12.302;2023-11-19T03:35:12;100886.78;;;4.48;75.14
83492;BME280;73661;56.120;12.302;2023-11-19T03:37:38;100878.06;;;4.44;75.13
83492;BME280;73661;56.120;12.302;2023-11-19T03:40:05;100868.66;;;4.46;74.24
83492;BME280;73661;56.120;12.302;2023-11-19T03:42:31;100868.16;;;4.31;75.30
83492;BME280;73661;56.120;12.302;2023-11-19T03:44:57;100850.81;;;4.54;74.69
83492;BME280;73661;56.120;12.302;2023-11-19T03:47:23;100854.97;;;4.49;75.12
83492;BME280;73661;56.120;12.302;2023-11-19T03:49:50;100849.72;;;4.47;75.39
83492;BME280;73661;56.120;12.302;2023-11-19T03:52:17;100846.28;;;4.47;75.06
83492;BME280;73661;56.120;12.302;2023-11-19T03:54:44;100830.63;;;4.42;76.03
83492;BME280;73661;56.120;12.302;2023-11-19T03:57:10;100831.59;;;4.73;75.10
83492;BME280;73661;56.120;12.302;2023-11-19T03:59:39;100835.22;;;4.51;75.25
83492;BME280;73661;56.120;12.302;2023-11-19T04:02:05;100825.28;;;4.63;75.10
83492;BME280;73661;56.120;12.302;2023-11-19T04:04:32;100823.44;;;4.60;75.71
83492;BME280;73661;56.120;12.302;2023-11-19T04:06:58;100819.72;;;4.78;75.05
83492;BME280;73661;56.120;12.302;2023-11-19T04:09:29;100820.19;;;4.66;75.55
83492;BME280;73661;56.120;12.302;2023-11-19T04:11:56;100818.03;;;4.53;75.76
83492;BME280;73661;56.120;12.302;2023-11-19T04:14:22;100817.56;;;4.64;75.56
83492;BME280;73661;56.120;12.302;2023-11-19T04:16:48;100803.00;;;4.95;74.91
83492;BME280;73661;56.120;12.302;2023-11-19T04:19:13;100810.00;;;4.71;75.67
83492;BME280;73661;56.120;12.302;2023-11-19T04:21:42;100799.03;;;4.78;75.25
83492;BME280;73661;56.120;12.302;2023-11-19T04:24:11;100802.53;;;4.80;75.93
83492;BME280;73661;56.120;12.302;2023-11-19T04:26:41;100790.38;;;4.77;75.97
83492;BME280;73661;56.120;12.302;2023-11-19T04:29:12;100782.63;;;4.77;76.09
83492;BME280;73661;56.120;12.302;2023-11-19T04:31:39;100784.53;;;4.83;75.99
83492;BME280;73661;56.120;12.302;2023-11-19T04:34:07;100769.75;;;4.79;76.03
83492;BME280;73661;56.120;12.302;2023-11-19T04:36:33;100772.88;;;4.97;76.10
83492;BME280;73661;56.120;12.302;2023-11-19T04:39:00;100765.03;;;4.65;77.46
83492;BME280;73661;56.120;12.302;2023-11-19T04:41:27;100760.22;;;4.78;76.96
83492;BME280;73661;56.120;12.302;2023-11-19T04:43:55;100751.34;;;4.98;76.28
83492;BME280;73661;56.120;12.302;2023-11-19T04:46:22;100751.63;;;5.07;76.35
83492;BME280;73661;56.120;12.302;2023-11-19T04:48:49;100745.94;;;4.89;76.90
83492;BME280;73661;56.120;12.302;2023-11-19T04:51:15;100750.53;;;4.71;77.94
83492;BME280;73661;56.120;12.302;2023-11-19T04:53:41;100749.69;;;5.00;77.13
83492;BME280;73661;56.120;12.302;2023-11-19T04:56:12;100743.88;;;4.79;77.45
83492;BME280;73661;56.120;12.302;2023-11-19T04:58:39;100727.06;;;4.93;76.87
83492;BME280;73661;56.120;12.302;2023-11-19T05:01:04;100727.75;;;4.87;77.84
83492;BME280;73661;56.120;12.302;2023-11-19T05:03:31;100726.84;;;4.85;77.80
83492;BME280;73661;56.120;12.302;2023-11-19T05:05:57;100726.38;;;4.99;77.57
83492;BME280;73661;56.120;12.302;2023-11-19T05:08:23;100718.28;;;4.88;78.32
83492;BME280;73661;56.120;12.302;2023-11-19T05:10:49;100717.00;;;5.02;77.35
83492;BME280;73661;56.120;12.302;2023-11-19T05:13:14;100711.53;;;4.93;78.32
83492;BME280;73661;56.120;12.302;2023-11-19T05:15:40;100703.53;;;4.84;77.75
83492;BME280;73661;56.120;12.302;2023-11-19T05:18:06;100700.06;;;4.83;78.34
83492;BME280;73661;56.120;12.302;2023-11-19T05:20:32;100691.44;;;5.14;77.73
83492;BME280;73661;56.120;12.302;2023-11-19T05:22:59;100682.72;;;4.81;77.92
83492;BME280;73661;56.120;12.302;2023-11-19T05:25:26;100675.09;;;4.84;77.98
83492;BME280;73661;56.120;12.302;2023-11-19T05:27:53;100669.91;;;4.84;78.91
83492;BME280;73661;56.120;12.302;2023-11-19T05:30:20;100672.31;;;4.78;79.24
83492;BME280;73661;56.120;12.302;2023-11-19T05:32:45;100662.00;;;4.79;78.44
83492;BME280;73661;56.120;12.302;2023-11-19T05:35:11;100659.75;;;4.90;78.48
83492;BME280;73661;56.120;12.302;2023-11-19T05:37:38;100667.91;;;5.05;77.60
83492;BME280;73661;56.120;12.302;2023-11-19T05:40:06;100661.75;;;5.00;77.82
83492;BME280;73661;56.120;12.302;2023-11-19T05:42:41;100653.06;;;4.98;77.78
83492;BME280;73661;56.120;12.302;2023-11-19T05:45:07;100640.16;;;5.00;78.16
83492;BME280;73661;56.120;12.302;2023-11-19T05:47:35;100644.47;;;4.99;78.64
83492;BME280;73661;56.120;12.302;2023-11-19T05:50:01;100636.72;;;4.99;78.44
83492;BME280;73661;56.120;12.302;2023-11-19T05:52:27;100649.09;;;4.79;79.43
83492;BME280;73661;56.120;12.302;2023-11-19T05:54:53;100633.84;;;4.88;79.16
83492;BME280;73661;56.120;12.302;2023-11-19T05:57:19;100639.13;;;4.93;79.55
83492;BME280;73661;56.120;12.302;2023-11-19T05:59:50;100637.13;;;4.83;79.82
83492;BME280;73661;56.120;12.302;2023-11-19T06:02:17;100625.09;;;4.85;79.67
83492;BME280;73661;56.120;12.302;2023-11-19T06:04:42;100622.22;;;5.06;79.24
83492;BME280;73661;56.120;12.302;2023-11-19T06:07:10;100620.53;;;5.06;78.98
83492;BME280;73661;56.120;12.302;2023-11-19T06:09:35;100618.25;;;4.87;79.47
83492;BME280;73661;56.120;12.302;2023-11-19T06:12:01;100612.66;;;4.72;80.64
83492;BME280;73661;56.120;12.302;2023-11-19T06:14:31;100612.50;;;4.65;80.67
83492;BME280;73661;56.120;12.302;2023-11-19T06:16:58;100612.84;;;4.78;80.45
83492;BME280;73661;56.120;12.302;2023-11-19T06:19:25;100604.19;;;4.76;81.21
83492;BME280;73661;56.120;12.302;2023-11-19T06:21:51;100604.84;;;4.69;81.02
83492;BME280;73661;56.120;12.302;2023-11-19T06:24:16;100600.06;;;4.82;80.31
83492;BME280;73661;56.120;12.302;2023-11-19T06:26:42;100597.34;;;4.78;80.45
83492;BME280;73661;56.120;12.302;2023-11-19T06:29:08;100594.22;;;4.89;80.36
83492;BME280;73661;56.120;12.302;2023-11-19T06:31:34;100585.47;;;4.86;79.38
83492;BME280;73661;56.120;12.302;2023-11-19T06:33:59;100584.44;;;4.79;79.39
83492;BME280;73661;56.120;12.302;2023-11-19T06:36:25;100590.63;;;4.84;79.63
83492;BME280;73661;56.120;12.302;2023-11-19T06:38:52;100584.97;;;4.99;79.42
83492;BME280;73661;56.120;12.302;2023-11-19T06:41:18;100572.38;;;5.11;78.00
83492;BME280;73661;56.120;12.302;2023-11-19T06:43:45;100573.41;;;5.18;78.78
83492;BME280;73661;56.120;12.302;2023-11-19T06:46:17;100572.34;;;4.78;79.91
83492;BME280;73661;56.120;12.302;2023-11-19T06:48:44;100568.47;;;4.94;78.98
83492;BME280;73661;56.120;12.302;2023-11-19T06:51:10;100566.22;;;5.08;78.61
83492;BME280;73661;56.120;12.302;2023-11-19T06:53:36;100554.94;;;5.04;79.19
83492;BME280;73661;56.120;12.302;2023-11-19T06:56:03;100550.19;;;4.88;78.96
83492;BME280;73661;56.120;12.302;2023-11-19T06:58:35;100547.75;;;4.94;79.51
83492;BME280;73661;56.120;12.302;2023-11-19T07:01:01;100546.00;;;4.93;78.53
83492;BME280;73661;56.120;12.302;2023-11-19T07:03:27;100544.03;;;4.83;78.56
83492;BME280;73661;56.120;12.302;2023-11-19T07:05:52;100545.63;;;5.11;79.13
83492;BME280;73661;56.120;12.302;2023-11-19T07:08:18;100527.00;;;4.91;78.16
83492;BME280;73661;56.120;12.302;2023-11-19T07:10:44;100533.94;;;4.92;78.47
83492;BME280;73661;56.120;12.302;2023-11-19T07:13:09;100528.19;;;5.04;78.38
83492;BME280;73661;56.120;12.302;2023-11-19T07:15:35;100525.31;;;4.93;78.27
83492;BME280;73661;56.120;12.302;2023-11-19T07:18:01;100523.75;;;4.98;78.68
83492;BME280;73661;56.120;12.302;2023-11-19T07:20:26;100529.66;;;4.94;78.44
83492;BME280;73661;56.120;12.302;2023-11-19T07:22:53;100515.97;;;4.98;77.98
83492;BME280;73661;56.120;12.302;2023-11-19T07:25:20;100508.16;;;4.95;78.78
83492;BME280;73661;56.120;12.302;2023-11-19T07:27:45;100514.25;;;4.97;78.72
83492;BME280;73661;56.120;12.302;2023-11-19T07:30:13;100507.06;;;4.87;78.14
83492;BME280;73661;56.120;12.302;2023-11-19T07:32:39;100513.97;;;4.88;78.78
83492;BME280;73661;56.120;12.302;2023-11-19T07:35:05;100506.44;;;4.96;78.43
83492;BME280;73661;56.120;12.302;2023-11-19T07:37:31;100501.16;;;4.91;78.85
83492;BME280;73661;56.120;12.302;2023-11-19T07:39:57;100504.72;;;4.96;78.44
83492;BME280;73661;56.120;12.302;2023-11-19T07:42:22;100499.56;;;4.96;78.38
83492;BME280;73661;56.120;12.302;2023-11-19T07:44:49;100491.00;;;4.99;78.82
83492;BME280;73661;56.120;12.302;2023-11-19T07:47:14;100492.75;;;5.01;78.78
83492;BME280;73661;56.120;12.302;2023-11-19T07:49:40;100492.56;;;4.93;78.58
83492;BME280;73661;56.120;12.302;2023-11-19T07:52:06;100506.31;;;4.91;78.97
83492;BME280;73661;56.120;12.302;2023-11-19T07:54:32;100489.06;;;4.90;78.72
83492;BME280;73661;56.120;12.302;2023-11-19T07:56:58;100492.91;;;4.73;79.84
83492;BME280;73661;56.120;12.302;2023-11-19T07:59:25;100491.53;;;4.87;80.17
83492;BME280;73661;56.120;12.302;2023-11-19T08:01:52;100486.56;;;4.95;79.67
83492;BME280;73661;56.120;12.302;2023-11-19T08:04:18;100482.69;;;4.77;80.81
83492;BME280;73661;56.120;12.302;2023-11-19T08:06:43;100489.47;;;4.74;81.51
83492;BME280;73661;56.120;12.302;2023-11-19T08:09:11;100487.31;;;4.89;80.97
83492;BME280;73661;56.120;12.302;2023-11-19T08:11:41;100495.81;;;4.85;81.15
83492;BME280;73661;56.120;12.302;2023-11-19T08:14:07;100481.72;;;4.74;80.90
83492;BME280;73661;56.120;12.302;2023-11-19T08:16:33;100478.16;;;4.69;81.23
83492;BME280;73661;56.120;12.302;2023-11-19T08:18:59;100477.38;;;4.73;81.26
83492;BME280;73661;56.120;12.302;2023-11-19T08:21:25;100467.09;;;4.74;81.47
83492;BME280;73661;56.120;12.302;2023-11-19T08:23:52;100475.47;;;4.65;82.52
83492;BME280;73661;56.120;12.302;2023-11-19T08:26:18;100454.13;;;4.73;82.11
83492;BME280;73661;56.120;12.302;2023-11-19T08:28:43;100456.63;;;4.68;82.42
83492;BME280;73661;56.120;12.302;2023-11-19T08:31:09;100457.13;;;4.55;81.94
83492;BME280;73661;56.120;12.302;2023-11-19T08:33:35;100461.63;;;4.62;82.44
83492;BME280;73661;56.120;12.302;2023-11-19T08:36:01;100454.75;;;4.62;82.56
83492;BME280;73661;56.120;12.302;2023-11-19T08:38:26;100465.00;;;4.61;82.94
83492;BME280;73661;56.120;12.302;2023-11-19T08:40:52;100450.41;;;4.61;82.56
83492;BME280;73661;56.120;12.302;2023-11-19T08:43:18;100448.94;;;4.73;82.81
83492;BME280;73661;56.120;12.302;2023-11-19T08:45:43;100451.91;;;4.53;82.65
83492;BME280;73661;56.120;12.302;2023-11-19T08:48:09;100449.41;;;4.56;83.07
83492;BME280;73661;56.120;12.302;2023-11-19T08:50:35;100452.22;;;4.65;82.99
83492;BME280;73661;56.120;12.302;2023-11-19T08:53:00;100445.28;;;4.63;83.05
83492;BME280;73661;56.120;12.302;2023-11-19T08:55:26;100439.25;;;4.64;82.89
83492;BME280;73661;56.120;12.302;2023-11-19T08:57:53;100441.19;;;4.73;83.27
83492;BME280;73661;56.120;12.302;2023-11-19T09:00:18;100434.31;;;4.73;82.01
83492;BME280;73661;56.120;12.302;2023-11-19T09:02:44;100433.78;;;4.52;83.19
83492;BME280;73661;56.120;12.302;2023-11-19T09:05:10;100427.69;;;4.83;82.84
83492;BME280;73661;56.120;12.302;2023-11-19T09:07:38;100431.47;;;4.62;82.79
83492;BME280;73661;56.120;12.302;2023-11-19T09:10:04;100430.50;;;4.59;83.03
83492;BME280;73661;56.120;12.302;2023-11-19T09:12:31;100422.94;;;4.67;82.13
83492;BME280;73661;56.120;12.302;2023-11-19T09:14:57;100414.88;;;4.54;82.93
83492;BME280;73661;56.120;12.302;2023-11-19T09:17:22;100413.56;;;4.70;82.66
83492;BME280;73661;56.120;12.302;2023-11-19T09:19:50;100438.97;;;4.53;82.71
83492;BME280;73661;56.120;12.302;2023-11-19T09:22:16;100416.22;;;4.73;82.22
83492;BME280;73661;56.120;12.302;2023-11-19T09:24:41;100412.09;;;4.81;82.17
83492;BME280;73661;56.120;12.302;2023-11-19T09:27:09;100408.38;;;4.69;82.85
83492;BME280;73661;56.120;12.302;2023-11-19T09:29:35;100411.72;;;4.66;82.50
83492;BME280;73661;56.120;12.302;2023-11-19T09:32:01;100406.06;;;4.81;82.61
83492;BME280;73661;56.120;12.302;2023-11-19T09:34:27;100407.69;;;4.76;82.63
83492;BME280;73661;56.120;12.302;2023-11-19T09:36:53;100395.56;;;4.75;82.45
83492;BME280;73661;56.120;12.302;2023-11-19T09:39:19;100404.41;;;4.83;83.10
83492;BME280;73661;56.120;12.302;2023-11-19T09:41:46;100413.91;;;4.84;82.57
83492;BME280;73661;56.120;12.302;2023-11-19T09:44:12;100407.09;;;4.87;82.49
83492;BME280;73661;56.120;12.302;2023-11-19T09:46:43;100402.50;;;4.76;82.49
83492;BME280;73661;56.120;12.302;2023-11-19T09:49:10;100402.72;;;4.85;82.63
83492;BME280;73661;56.120;12.302;2023-11-19T09:51:37;100406.00;;;4.78;83.13
83492;BME280;73661;56.120;12.302;2023-11-19T09:54:03;100399.00;;;4.74;82.63
83492;BME280;73661;56.120;12.302;2023-11-19T09:56:29;100394.97;;;4.85;83.04
83492;BME280;73661;56.120;12.302;2023-11-19T09:58:55;100387.72;;;4.70;82.66
83492;BME280;73661;56.120;12.302;2023-11-19T10:01:21;100383.47;;;4.74;82.61
83492;BME280;73661;56.120;12.302;2023-11-19T10:03:47;100383.81;;;4.87;82.28
83492;BME280;73661;56.120;12.302;2023-11-19T10:06:15;100385.19;;;4.73;82.36
83492;BME280;73661;56.120;12.302;2023-11-19T10:08:43;100382.50;;;4.69;82.27
83492;BME280;73661;56.120;12.302;2023-11-19T10:11:09;100381.03;;;4.80;82.44
83492;BME280;73661;56.120;12.302;2023-11-19T10:13:39;100385.22;;;4.75;82.16
83492;BME280;73661;56.120;12.302;2023-11-19T10:16:08;100374.09;;;4.77;82.27
83492;BME280;73661;56.120;12.302;2023-11-19T10:18:35;100372.41;;;4.79;82.48
83492;BME280;73661;56.120;12.302;2023-11-19T10:21:06;100365.38;;;4.74;81.50
83492;BME280;73661;56.120;12.302;2023-11-19T10:23:51;100369.66;;;4.72;82.26
83492;BME280;73661;56.120;12.302;2023-11-19T10:26:18;100364.78;;;4.84;82.22
83492;BME280;73661;56.120;12.302;2023-11-19T10:28:46;100362.59;;;4.64;83.09
83492;BME280;73661;56.120;12.302;2023-11-19T10:31:17;100353.72;;;4.89;82.62
83492;BME280;73661;56.120;12.302;2023-11-19T10:33:43;100363.66;;;4.74;82.57
83492;BME280;73661;56.120;12.302;2023-11-19T10:36:14;100353.06;;;4.62;81.87
83492;BME280;73661;56.120;12.302;2023-11-19T10:38:40;100363.22;;;4.90;82.15
83492;BME280;73661;56.120;12.302;2023-11-19T10:41:27;100356.22;;;4.88;82.30
83492;BME280;73661;56.120;12.302;2023-11-19T10:43:53;100355.81;;;4.70;82.78
83492;BME280;73661;56.120;12.302;2023-11-19T10:46:19;100357.22;;;4.93;82.54
83492;BME280;73661;56.120;12.302;2023-11-19T10:48:49;100355.72;;;4.67;82.20
83492;BME280;73661;56.120;12.302;2023-11-19T10:51:19;100354.44;;;4.84;81.84
83492;BME280;73661;56.120;12.302;2023-11-19T10:53:49;100356.56;;;4.65;81.84
83492;BME280;73661;56.120;12.302;2023-11-19T10:56:20;100355.66;;;4.63;82.09
83492;BME280;73661;56.120;12.302;2023-11-19T10:58:51;100356.91;;;4.79;81.83
83492;BME280;73661;56.120;12.302;2023-11-19T11:01:23;100367.97;;;4.74;82.00
83492;BME280;73661;56.120;12.302;2023-11-19T11:03:55;100370.66;;;4.78;82.33
83492;BME280;73661;56.120;12.302;2023-11-19T11:06:24;100361.75;;;4.65;82.12
83492;BME280;73661;56.120;12.302;2023-11-19T11:08:51;100365.47;;;5.14;80.90
83492;BME280;73661;56.120;12.302;2023-11-19T11:11:18;100365.19;;;4.66;82.41
83492;BME280;73661;56.120;12.302;2023-11-19T11:13:47;100350.31;;;4.92;82.46
83492;BME280;73661;56.120;12.302;2023-11-19T11:16:15;100357.00;;;4.82;81.99
83492;BME280;73661;56.120;12.302;2023-11-19T11:18:46;100343.41;;;4.92;82.17
83492;BME280;73661;56.120;12.302;2023-11-19T11:21:20;100347.13;;;4.68;83.18
83492;BME280;73661;56.120;12.302;2023-11-19T11:37:39;100340.19;;;4.65;82.02
83492;BME280;73661;56.120;12.302;2023-11-19T11:40:15;100324.81;;;4.70;82.97
83492;BME280;73661;56.120;12.302;2023-11-19T11:42:41;100334.63;;;4.84;81.58
83492;BME280;73661;56.120;12.302;2023-11-19T11:45:08;100327.56;;;4.77;81.44
83492;BME280;73661;56.120;12.302;2023-11-19T11:50:14;100330.84;;;4.70;80.89
83492;BME280;73661;56.120;12.302;2023-11-19T11:55:36;100325.56;;;4.65;81.78
83492;BME280;73661;56.120;12.302;2023-11-19T11:58:06;100316.00;;;4.61;81.74
83492;BME280;73661;56.120;12.302;2023-11-19T12:00:41;100323.97;;;4.71;81.57
83492;BME280;73661;56.120;12.302;2023-11-19T12:03:08;100320.56;;;4.73;81.82
83492;BME280;73661;56.120;12.302;2023-11-19T12:05:47;100325.00;;;4.79;81.28
83492;BME280;73661;56.120;12.302;2023-11-19T12:08:14;100309.44;;;4.76;81.72
83492;BME280;73661;56.120;12.302;2023-11-19T12:10:50;100311.19;;;4.77;81.57
83492;BME280;73661;56.120;12.302;2023-11-19T12:13:18;100313.75;;;4.77;81.10
83492;BME280;73661;56.120;12.302;2023-11-19T12:18:27;100297.59;;;4.87;81.83
83492;BME280;73661;56.120;12.302;2023-11-19T12:20:56;100300.84;;;4.77;81.12
83492;BME280;73661;56.120;12.302;2023-11-19T12:23:23;100301.03;;;4.86;80.90
83492;BME280;73661;56.120;12.302;2023-11-19T12:25:49;100300.16;;;4.85;80.62
83492;BME280;73661;56.120;12.302;2023-11-19T12:28:15;100297.25;;;4.72;80.48
83492;BME280;73661;56.120;12.302;2023-11-19T12:30:45;100303.41;;;4.75;80.13
83492;BME280;73661;56.120;12.302;2023-11-19T12:33:12;100311.84;;;5.07;80.24
83492;BME280;73661;56.120;12.302;2023-11-19T12:35:46;100308.81;;;4.87;80.47
83492;BME280;73661;56.120;12.302;2023-11-19T12:38:22;100312.25;;;5.26;78.84
83492;BME280;73661;56.120;12.302;2023-11-19T12:41:03;100305.19;;;5.17;78.91
83492;BME280;73661;56.120;12.302;2023-11-19T12:43:29;100310.56;;;5.28;78.55
83492;BME280;73661;56.120;12.302;2023-11-19T12:45:55;100306.31;;;4.90;78.55
83492;BME280;73661;56.120;12.302;2023-11-19T12:48:21;100303.34;;;4.74;78.97
83492;BME280;73661;56.120;12.302;2023-11-19T12:50:54;100296.13;;;4.97;78.93
83492;BME280;73661;56.120;12.302;2023-11-19T12:53:22;100305.75;;;5.04;78.99
83492;BME280;73661;56.120;12.302;2023-11-19T12:55:49;100300.69;;;5.08;78.65
83492;BME280;73661;56.120;12.302;2023-11-19T12:58:36;100301.44;;;5.04;78.53
83492;BME280;73661;56.120;12.302;2023-11-19T13:01:04;100296.13;;;4.98;79.14
83492;BME280;73661;56.120;12.302;2023-11-19T13:03:34;100300.84;;;4.77;79.40
83492;BME280;73661;56.120;12.302;2023-11-19T13:06:05;100294.13;;;4.85;79.39
83492;BME280;73661;56.120;12.302;2023-11-19T13:08:49;100291.50;;;4.83;78.87
83492;BME280;73661;56.120;12.302;2023-11-19T13:11:36;100285.47;;;4.83;79.95
83492;BME280;73661;56.120;12.302;2023-11-19T13:14:24;100294.41;;;4.97;78.81